createdAt,value
2023-01-20T00:01:39.016Z,1.48
2023-01-20T00:04:21.616Z,1.70
2023-01-20T00:07:05.620Z,1.65
2023-01-20T00:09:48.247Z,1.25
2023-01-20T00:12:31.257Z,1.80
2023-01-20T00:15:14.294Z,1.73
2023-01-20T00:17:58.023Z,1.60
2023-01-20T00:20:40.619Z,1.48
2023-01-20T00:23:24.653Z,1.80
2023-01-20T00:26:07.754Z,1.70
2023-01-20T00:28:50.911Z,1.52
2023-01-20T00:31:34.690Z,1.55
2023-01-20T00:34:17.465Z,1.42
2023-01-20T00:37:00.113Z,1.50
2023-01-20T00:39:44.005Z,1.50
2023-01-20T00:42:26.596Z,1.50
2023-01-20T00:45:09.470Z,1.70
2023-01-20T00:47:52.076Z,1.52
2023-01-20T00:50:34.656Z,1.75
2023-01-20T00:53:17.347Z,1.52
2023-01-20T00:56:01.312Z,1.55
2023-01-20T00:58:44.422Z,1.70
2023-01-20T01:01:27.001Z,1.58
2023-01-20T01:04:09.676Z,1.40
2023-01-20T01:06:52.280Z,1.50
2023-01-20T01:09:35.017Z,1.65
2023-01-20T01:12:18.994Z,1.48
2023-01-20T01:15:01.616Z,1.88
2023-01-20T01:17:44.978Z,1.70
2023-01-20T01:20:28.068Z,1.55
2023-01-20T01:23:10.832Z,1.55
2023-01-20T01:25:53.459Z,1.90
2023-01-20T01:28:37.519Z,2.00
2023-01-20T01:31:21.894Z,1.60
2023-01-20T01:34:04.566Z,1.70
2023-01-20T01:36:47.134Z,2.10
2023-01-20T01:39:29.747Z,1.83
2023-01-20T01:42:13.014Z,1.80
2023-01-20T01:45:14.765Z,2.05
2023-01-20T01:48:02.279Z,1.90
2023-01-20T01:50:46.919Z,2.08
2023-01-20T01:53:30.199Z,2.30
2023-01-20T01:56:14.103Z,2.20
2023-01-20T01:58:58.116Z,2.28
2023-01-20T02:01:41.896Z,2.55
2023-01-20T02:04:42.804Z,2.53
2023-01-20T02:07:25.646Z,2.70
2023-01-20T02:10:08.749Z,3.10
2023-01-20T02:12:51.805Z,2.97
2023-01-20T02:15:38.947Z,3.90
2023-01-20T02:18:27.491Z,3.60
2023-01-20T02:21:25.543Z,4.10
2023-01-20T02:24:28.825Z,3.80
2023-01-20T02:27:15.142Z,4.35
2023-01-20T02:30:08.309Z,4.80
2023-01-20T02:32:55.090Z,4.32
2023-01-20T02:35:40.328Z,4.90
2023-01-20T02:38:26.634Z,5.53
2023-01-20T02:41:11.679Z,5.18
2023-01-20T02:43:58.552Z,5.20
2023-01-20T02:46:46.626Z,5.10
2023-01-20T02:49:32.428Z,5.55
2023-01-20T02:52:16.881Z,5.47
2023-01-20T02:55:01.009Z,6.25
2023-01-20T02:57:46.558Z,5.95
2023-01-20T03:00:33.011Z,6.03
2023-01-20T03:03:17.833Z,6.68
2023-01-20T03:06:03.627Z,6.70
2023-01-20T03:08:49.016Z,6.45
2023-01-20T03:11:33.068Z,6.72
2023-01-20T03:14:17.131Z,6.72
2023-01-20T03:16:59.677Z,6.90
2023-01-20T03:19:42.351Z,7.50
2023-01-20T03:22:26.343Z,7.10
2023-01-20T03:25:09.672Z,7.50
2023-01-20T03:27:52.202Z,7.72
2023-01-20T03:30:34.880Z,7.45
2023-01-20T03:33:18.569Z,7.68
2023-01-20T03:36:01.197Z,7.55
2023-01-20T03:38:45.819Z,8.48
2023-01-20T03:41:34.946Z,8.18
2023-01-20T03:44:23.224Z,8.70
2023-01-20T03:47:16.802Z,8.52
2023-01-20T03:50:02.746Z,8.10
2023-01-20T03:52:49.793Z,8.63
2023-01-20T03:55:36.618Z,8.45
2023-01-20T03:58:21.356Z,9.77
2023-01-20T04:01:16.497Z,8.75
2023-01-20T04:04:01.928Z,9.77
2023-01-20T04:06:45.395Z,9.45
2023-01-20T04:09:30.104Z,9.70
2023-01-20T04:12:14.554Z,9.30
2023-01-20T04:14:57.123Z,10.27
2023-01-20T04:17:39.686Z,9.68
2023-01-20T04:20:24.405Z,10.43
2023-01-20T04:23:07.557Z,10.98
2023-01-20T04:25:50.134Z,9.90
2023-01-20T04:28:34.057Z,10.45
2023-01-20T04:31:29.570Z,10.80
2023-01-20T04:34:13.720Z,11.00
2023-01-20T04:36:56.337Z,11.13
2023-01-20T04:39:39.050Z,11.40
2023-01-20T04:42:21.613Z,11.05
2023-01-20T04:45:06.094Z,10.98
2023-01-20T04:47:48.670Z,10.98
2023-01-20T04:50:31.266Z,10.88
2023-01-20T04:53:16.880Z,10.90
2023-01-20T04:55:59.479Z,11.48
2023-01-20T04:58:42.381Z,11.05
2023-01-20T05:01:26.425Z,10.77
2023-01-20T05:04:09.080Z,10.93
2023-01-20T05:06:51.726Z,11.60
2023-01-20T05:09:34.303Z,11.38
2023-01-20T05:12:16.912Z,11.25
2023-01-20T05:14:59.508Z,10.68
2023-01-20T05:17:43.409Z,11.50
2023-01-20T05:20:25.957Z,11.07
2023-01-20T05:23:08.520Z,12.05
2023-01-20T05:25:51.365Z,11.85
2023-01-20T05:28:33.995Z,10.02
2023-01-20T05:31:16.992Z,11.60
2023-01-20T05:34:00.972Z,11.82
2023-01-20T05:36:43.584Z,12.05
2023-01-20T05:39:26.230Z,11.35
2023-01-20T05:42:08.836Z,11.85
2023-01-20T05:44:51.403Z,10.95
2023-01-20T05:47:33.985Z,11.68
2023-01-20T05:50:18.089Z,10.85
2023-01-20T05:53:00.662Z,11.40
2023-01-20T05:55:43.244Z,11.18
2023-01-20T05:58:25.874Z,11.63
2023-01-20T06:01:09.309Z,11.68
2023-01-20T06:03:52.085Z,11.65
2023-01-20T06:06:36.088Z,11.50
2023-01-20T06:09:18.669Z,11.05
2023-01-20T06:12:01.283Z,11.65
2023-01-20T06:14:43.864Z,11.25
2023-01-20T06:17:26.502Z,11.95
2023-01-20T06:20:10.023Z,11.43
2023-01-20T06:22:56.903Z,11.93
2023-01-20T06:25:39.493Z,11.55
2023-01-20T06:28:22.102Z,10.95
2023-01-20T06:31:05.890Z,11.38
2023-01-20T06:33:48.609Z,10.80
2023-01-20T06:36:31.244Z,11.73
2023-01-20T06:39:15.223Z,11.55
2023-01-20T06:41:58.633Z,11.95
2023-01-20T06:44:41.192Z,11.00
2023-01-20T06:47:23.873Z,11.32
2023-01-20T06:50:06.955Z,10.43
2023-01-20T06:52:49.549Z,11.23
2023-01-20T06:55:33.447Z,11.30
2023-01-20T06:58:16.013Z,10.45
2023-01-20T07:00:59.318Z,12.00
2023-01-20T07:03:42.607Z,10.75
2023-01-20T07:06:27.951Z,11.48
2023-01-20T07:09:11.335Z,10.95
2023-01-20T07:11:55.461Z,10.88
2023-01-20T07:14:38.077Z,10.48
2023-01-20T07:17:20.647Z,10.82
2023-01-20T07:20:03.444Z,11.77
2023-01-20T07:22:46.033Z,10.38
2023-01-20T07:25:28.904Z,10.77
2023-01-20T07:28:12.875Z,10.95
2023-01-20T07:30:55.683Z,10.57
2023-01-20T07:33:38.808Z,10.38
2023-01-20T07:36:21.626Z,10.93
2023-01-20T07:39:04.266Z,10.70
2023-01-20T07:41:48.852Z,10.63
2023-01-20T07:44:33.084Z,10.35
2023-01-20T07:47:15.720Z,9.85
2023-01-20T07:49:58.320Z,10.25
2023-01-20T07:52:41.092Z,9.98
2023-01-20T07:55:25.210Z,10.05
2023-01-20T07:58:07.868Z,10.02
2023-01-20T08:00:51.847Z,10.50
2023-01-20T08:03:34.496Z,10.60
2023-01-20T08:06:17.761Z,10.38
2023-01-20T08:09:01.320Z,10.27
2023-01-20T08:11:44.011Z,10.00
2023-01-20T08:14:26.817Z,10.63
2023-01-20T08:17:10.885Z,9.85
2023-01-20T08:19:53.588Z,10.20
2023-01-20T08:22:36.268Z,9.85
2023-01-20T08:25:19.008Z,9.05
2023-01-20T08:28:02.328Z,9.63
2023-01-20T08:30:46.102Z,9.63
2023-01-20T08:33:30.193Z,9.30
2023-01-20T08:36:14.380Z,9.18
2023-01-20T08:38:57.687Z,9.75
2023-01-20T08:41:40.796Z,9.13
2023-01-20T08:44:23.630Z,8.50
2023-01-20T08:47:06.522Z,8.63
2023-01-20T08:49:50.525Z,8.77
2023-01-20T08:52:34.013Z,8.63
2023-01-20T08:55:17.143Z,8.55
2023-01-20T08:57:59.951Z,8.38
2023-01-20T09:00:42.598Z,8.05
2023-01-20T09:03:25.232Z,9.05
2023-01-20T09:06:09.833Z,8.27
2023-01-20T09:08:53.048Z,7.88
2023-01-20T09:11:35.836Z,9.02
2023-01-20T09:14:18.868Z,8.20
2023-01-20T09:17:02.764Z,8.48
2023-01-20T09:19:45.459Z,8.07
2023-01-20T09:22:29.446Z,8.05
2023-01-20T09:25:12.358Z,7.82
2023-01-20T09:27:55.000Z,7.93
2023-01-20T09:30:37.696Z,8.02
2023-01-20T09:33:20.293Z,8.05
2023-01-20T09:36:03.209Z,8.73
2023-01-20T09:39:04.742Z,8.05
2023-01-20T09:42:14.512Z,8.07
2023-01-20T09:44:58.146Z,7.22
2023-01-20T09:47:44.105Z,8.43
2023-01-20T09:50:47.478Z,8.32
2023-01-20T09:53:35.220Z,8.50
2023-01-20T09:56:21.029Z,7.93
2023-01-20T09:59:07.090Z,8.50
2023-01-20T10:01:50.485Z,8.07
2023-01-20T10:04:34.935Z,8.35
2023-01-20T10:07:24.113Z,8.38
2023-01-20T10:10:12.365Z,8.05
2023-01-20T10:12:58.736Z,8.43
2023-01-20T10:15:43.666Z,8.55
2023-01-20T10:18:31.036Z,7.80
2023-01-20T10:21:17.268Z,8.27
2023-01-20T10:24:01.871Z,7.60
2023-01-20T10:26:47.491Z,8.05
2023-01-20T10:29:34.939Z,7.75
2023-01-20T10:32:22.768Z,8.52
2023-01-20T10:35:10.054Z,8.13
2023-01-20T10:37:53.280Z,8.63
2023-01-20T10:40:39.515Z,8.23
2023-01-20T10:43:22.398Z,8.25
2023-01-20T10:46:23.040Z,8.25
2023-01-20T10:49:21.044Z,7.45
2023-01-20T10:52:13.706Z,8.88
2023-01-20T10:55:02.442Z,8.40
2023-01-20T10:57:45.142Z,8.25
2023-01-20T11:00:29.664Z,7.60
2023-01-20T11:03:15.121Z,7.95
2023-01-20T11:05:57.825Z,7.28
2023-01-20T11:08:44.219Z,8.40
2023-01-20T11:11:26.982Z,7.22
2023-01-20T11:14:09.781Z,7.28
2023-01-20T11:16:55.573Z,8.15
2023-01-20T11:19:49.064Z,7.28
2023-01-20T11:22:32.506Z,7.85
2023-01-20T11:25:24.924Z,8.10
2023-01-20T11:28:16.379Z,7.38
2023-01-20T11:30:59.095Z,8.25
2023-01-20T11:33:41.813Z,7.30
2023-01-20T11:36:25.992Z,7.47
2023-01-20T11:39:24.851Z,7.40
2023-01-20T11:42:15.395Z,7.35
2023-01-20T11:45:08.660Z,7.82
2023-01-20T11:48:03.371Z,7.78
2023-01-20T11:50:50.354Z,6.47
2023-01-20T11:53:33.608Z,7.68
2023-01-20T11:56:18.646Z,7.88
2023-01-20T11:59:04.382Z,7.65
2023-01-20T12:01:57.304Z,7.53
2023-01-20T12:04:48.741Z,7.57
2023-01-20T12:07:33.282Z,7.22
2023-01-20T12:10:21.046Z,7.72
2023-01-20T12:13:05.026Z,7.20
2023-01-20T12:15:56.127Z,6.95
2023-01-20T12:18:50.363Z,6.90
2023-01-20T12:21:44.977Z,7.10
2023-01-20T12:24:53.244Z,7.32
2023-01-20T12:27:37.868Z,7.50
2023-01-20T12:30:28.843Z,6.78
2023-01-20T12:33:17.921Z,7.88
2023-01-20T12:36:24.930Z,6.97
2023-01-20T12:39:15.162Z,8.10
2023-01-20T12:42:15.037Z,7.22
2023-01-20T12:44:59.193Z,7.45
2023-01-20T12:47:49.035Z,8.00
2023-01-20T12:50:39.012Z,7.25
2023-01-20T12:53:28.445Z,7.53
2023-01-20T12:56:18.120Z,8.02
2023-01-20T12:59:05.390Z,7.68
2023-01-20T13:01:55.119Z,7.47
2023-01-20T13:04:48.160Z,7.82
2023-01-20T13:07:39.147Z,7.70
2023-01-20T13:10:27.344Z,7.60
2023-01-20T13:13:15.353Z,6.90
2023-01-20T13:16:00.471Z,7.07
2023-01-20T13:18:51.001Z,7.00
2023-01-20T13:21:34.180Z,7.15
2023-01-20T13:24:24.270Z,7.32
2023-01-20T13:27:06.932Z,7.85
2023-01-20T13:29:56.752Z,7.00
2023-01-20T13:32:43.687Z,7.40
2023-01-20T13:35:47.176Z,7.68
2023-01-20T13:38:33.174Z,7.50
2023-01-20T13:41:47.799Z,7.57
2023-01-20T13:44:35.260Z,7.03
2023-01-20T13:47:37.887Z,7.82
2023-01-20T13:50:24.966Z,8.40
2023-01-20T13:53:27.861Z,8.18
2023-01-20T13:56:25.994Z,6.97
2023-01-20T13:59:10.111Z,7.10
2023-01-20T14:01:54.150Z,7.07
2023-01-20T14:04:36.752Z,7.43
2023-01-20T14:07:23.319Z,7.82
2023-01-20T14:10:06.523Z,7.05
2023-01-20T14:12:49.146Z,7.53
2023-01-20T14:15:36.388Z,7.10
2023-01-20T14:18:20.084Z,6.60
2023-01-20T14:21:13.503Z,7.47
2023-01-20T14:23:56.437Z,7.03
2023-01-20T14:26:39.124Z,7.10
2023-01-20T14:29:22.041Z,6.53
2023-01-20T14:32:14.510Z,7.88
2023-01-20T14:34:57.675Z,7.38
2023-01-20T14:37:40.940Z,7.32
2023-01-20T14:40:25.697Z,6.85
2023-01-20T14:43:15.697Z,7.95
2023-01-20T14:45:58.385Z,7.45
2023-01-20T14:48:42.947Z,8.07
2023-01-20T14:51:25.772Z,8.55
2023-01-20T14:54:26.814Z,7.43
2023-01-20T14:57:18.698Z,7.53
2023-01-20T15:00:11.945Z,7.90
2023-01-20T15:03:10.372Z,7.68
2023-01-20T15:05:56.329Z,6.93
2023-01-20T15:08:56.738Z,7.10
2023-01-20T15:11:43.382Z,7.03
2023-01-20T15:14:31.603Z,7.82
2023-01-20T15:17:17.640Z,6.50
2023-01-20T15:20:00.234Z,7.78
2023-01-20T15:22:45.264Z,7.50
2023-01-20T15:25:28.574Z,7.50
2023-01-20T15:28:19.799Z,7.20
2023-01-20T15:31:02.498Z,7.97
2023-01-20T15:33:45.541Z,7.55
2023-01-20T15:36:29.199Z,7.93
2023-01-20T15:39:14.112Z,7.45
2023-01-20T15:41:57.661Z,7.57
2023-01-20T15:44:40.399Z,7.55
2023-01-20T15:47:29.073Z,6.97
2023-01-20T15:50:13.895Z,7.40
2023-01-20T15:52:56.599Z,8.10
2023-01-20T15:55:43.788Z,9.07
2023-01-20T15:58:27.293Z,8.73
2023-01-20T16:01:10.830Z,8.68
2023-01-20T16:03:54.955Z,8.45
2023-01-20T16:06:38.861Z,8.75
2023-01-20T16:09:25.688Z,8.70
2023-01-20T16:12:11.693Z,8.23
2023-01-20T16:14:54.280Z,8.38
2023-01-20T16:17:36.936Z,8.77
2023-01-20T16:20:21.293Z,8.85
2023-01-20T16:23:04.015Z,8.88
2023-01-20T16:25:46.672Z,9.00
2023-01-20T16:28:30.752Z,9.77
2023-01-20T16:31:13.509Z,10.32
2023-01-20T16:33:56.517Z,9.95
2023-01-20T16:36:39.122Z,9.90
2023-01-20T16:39:21.789Z,9.68
2023-01-20T16:42:04.457Z,10.57
2023-01-20T16:44:48.449Z,10.68
2023-01-20T16:47:31.105Z,10.20
2023-01-20T16:50:14.131Z,11.65
2023-01-20T16:52:57.238Z,10.30
2023-01-20T16:55:40.264Z,11.57
2023-01-20T16:58:22.873Z,11.45
2023-01-20T17:01:11.932Z,12.82
2023-01-20T17:03:55.541Z,11.60
2023-01-20T17:06:38.179Z,14.18
2023-01-20T17:09:20.804Z,11.57
2023-01-20T17:12:03.457Z,12.27
2023-01-20T17:14:46.101Z,11.85
2023-01-20T17:17:30.085Z,12.15
2023-01-20T17:20:12.838Z,12.25
2023-01-20T17:22:56.153Z,11.52
2023-01-20T17:25:38.928Z,12.10
2023-01-20T17:28:21.518Z,12.23
2023-01-20T17:31:04.785Z,11.93
2023-01-20T17:33:49.052Z,10.70
2023-01-20T17:36:34.479Z,11.18
2023-01-20T17:39:17.360Z,11.38
2023-01-20T17:41:59.987Z,9.98
2023-01-20T17:44:42.624Z,10.65
2023-01-20T17:47:25.287Z,11.10
2023-01-20T17:50:09.856Z,12.23
2023-01-20T17:52:52.454Z,11.45
2023-01-20T17:55:35.694Z,11.63
2023-01-20T17:58:18.348Z,12.88
2023-01-20T18:01:09.724Z,12.27
2023-01-20T18:03:53.201Z,11.07
2023-01-20T18:06:37.624Z,11.32
2023-01-20T18:09:20.217Z,11.88
2023-01-20T18:12:02.865Z,11.80
2023-01-20T18:14:45.472Z,11.90
2023-01-20T18:17:28.097Z,11.32
2023-01-20T18:20:12.073Z,10.82
2023-01-20T18:22:56.046Z,10.52
2023-01-20T18:25:38.717Z,11.10
2023-01-20T18:28:21.340Z,10.55
2023-01-20T18:31:08.446Z,10.60
2023-01-20T18:33:51.943Z,11.05
2023-01-20T18:36:35.681Z,12.00
2023-01-20T18:39:20.567Z,11.40
2023-01-20T18:42:03.166Z,10.43
2023-01-20T18:44:45.745Z,11.38
2023-01-20T18:47:28.323Z,10.30
2023-01-20T18:50:11.335Z,11.98
2023-01-20T18:52:56.047Z,12.13
2023-01-20T18:55:40.060Z,12.55
2023-01-20T18:58:22.691Z,13.30
2023-01-20T19:01:05.857Z,12.88
2023-01-20T19:03:48.730Z,11.35
2023-01-20T19:06:34.211Z,11.32
2023-01-20T19:09:17.441Z,11.20
2023-01-20T19:12:01.568Z,11.05
2023-01-20T19:14:44.221Z,10.55
2023-01-20T19:17:28.289Z,10.02
2023-01-20T19:20:11.524Z,10.90
2023-01-20T19:22:54.140Z,10.43
2023-01-20T19:25:36.751Z,11.90
2023-01-20T19:28:20.751Z,11.70
2023-01-20T19:31:05.880Z,12.20
2023-01-20T19:33:48.977Z,13.35
2023-01-20T19:36:31.686Z,15.45
2023-01-20T19:39:14.343Z,11.60
2023-01-20T19:41:58.243Z,12.50
2023-01-20T19:44:42.255Z,12.23
2023-01-20T19:47:24.879Z,12.15
2023-01-20T19:50:07.775Z,12.57
2023-01-20T19:52:50.364Z,12.38
2023-01-20T19:55:32.980Z,12.05
2023-01-20T19:58:15.603Z,12.80
2023-01-20T20:01:07.202Z,11.77
2023-01-20T20:03:50.311Z,12.38
2023-01-20T20:06:33.623Z,11.98
2023-01-20T20:09:17.118Z,12.07
2023-01-20T20:12:05.194Z,11.90
2023-01-20T20:14:48.037Z,13.02
2023-01-20T20:17:32.187Z,12.38
2023-01-20T20:20:15.353Z,11.90
2023-01-20T20:22:58.227Z,12.25
2023-01-20T20:25:44.303Z,11.68
2023-01-20T20:28:27.568Z,11.10
2023-01-20T20:31:10.430Z,11.10
2023-01-20T20:33:54.529Z,11.02
2023-01-20T20:36:37.157Z,11.82
2023-01-20T20:39:20.305Z,11.52
2023-01-20T20:42:02.998Z,12.10
2023-01-20T20:44:45.671Z,11.57
2023-01-20T20:47:28.268Z,11.38
2023-01-20T20:50:13.694Z,11.05
2023-01-20T20:52:57.533Z,12.50
2023-01-20T20:55:40.588Z,12.65
2023-01-20T20:58:23.354Z,12.10
2023-01-20T21:01:08.893Z,12.27
2023-01-20T21:03:51.685Z,12.35
2023-01-20T21:06:35.707Z,11.15
2023-01-20T21:09:18.431Z,11.30
2023-01-20T21:12:01.023Z,11.43
2023-01-20T21:14:44.544Z,12.15
2023-01-20T21:17:27.153Z,12.45
2023-01-20T21:20:10.472Z,13.27
2023-01-20T21:22:54.542Z,12.25
2023-01-20T21:25:37.406Z,13.02
2023-01-20T21:28:20.180Z,11.65
2023-01-20T21:31:06.706Z,12.90
2023-01-20T21:33:53.417Z,12.73
2023-01-20T21:36:41.410Z,10.98
2023-01-20T21:39:25.398Z,11.93
2023-01-20T21:42:09.148Z,12.45
2023-01-20T21:44:50.781Z,11.52
2023-01-20T21:47:33.399Z,12.00
2023-01-20T21:50:33.796Z,12.13
2023-01-20T21:53:16.425Z,11.82
2023-01-20T21:56:00.373Z,12.07
2023-01-20T21:58:43.039Z,11.27
2023-01-20T22:01:25.722Z,12.00
2023-01-20T22:04:08.396Z,12.35
2023-01-20T22:06:51.113Z,12.27
2023-01-20T22:09:33.741Z,12.30
2023-01-20T22:12:17.899Z,12.05
2023-01-20T22:15:00.684Z,12.77
2023-01-20T22:17:43.412Z,12.00
2023-01-20T22:20:26.015Z,11.35
2023-01-20T22:23:08.677Z,11.20
2023-01-20T22:25:53.590Z,11.20
2023-01-20T22:28:39.729Z,11.52
2023-01-20T22:31:23.908Z,10.88
2023-01-20T22:34:07.520Z,10.55
2023-01-20T22:36:50.128Z,10.98
2023-01-20T22:39:33.113Z,10.43
2023-01-20T22:42:15.710Z,10.88
2023-01-20T22:44:59.644Z,10.02
2023-01-20T22:47:42.277Z,8.98
2023-01-20T22:50:24.880Z,9.52
2023-01-20T22:53:07.515Z,9.50
2023-01-20T22:56:00.556Z,8.70
2023-01-20T22:58:44.475Z,8.85
2023-01-20T23:01:29.989Z,9.15
2023-01-20T23:04:12.597Z,8.88
2023-01-20T23:06:55.247Z,9.50
2023-01-20T23:09:37.822Z,9.90
2023-01-20T23:12:20.441Z,10.35
2023-01-20T23:15:03.181Z,9.75
2023-01-20T23:17:47.143Z,8.52
2023-01-20T23:20:29.772Z,9.38
2023-01-20T23:23:12.411Z,9.35
2023-01-20T23:26:01.143Z,9.85
2023-01-20T23:28:44.077Z,9.38
2023-01-20T23:31:28.412Z,9.27
2023-01-20T23:34:12.546Z,9.77
2023-01-20T23:36:55.110Z,9.30
2023-01-20T23:39:37.707Z,8.88
2023-01-20T23:42:20.952Z,8.75
2023-01-20T23:45:03.608Z,9.05
2023-01-20T23:47:46.246Z,8.57
2023-01-20T23:50:30.246Z,9.05
2023-01-20T23:53:12.837Z,8.63
2023-01-20T23:55:59.499Z,9.18
2023-01-20T23:58:42.295Z,8.93
